sensor_id;sensor_type;location;lat;lon;timestamp;temperature;humidity
4207;DHT22;2117;47.972;7.830;2022-11-09T02:32:02;12.80;99.90
4207;DHT22;2117;47.972;7.830;2022-11-09T02:34:28;12.80;99.90
4207;DHT22;2117;47.972;7.830;2022-11-09T02:36:53;12.80;99.90
4207;DHT22;2117;47.972;7.830;2022-11-09T02:39:21;12.80;99.90
4207;DHT22;2117;47.972;7.830;2022-11-09T02:44:17;12.80;99.90
4207;DHT22;2117;47.972;7.830;2022-11-09T02:46:43;12.80;99.90
4207;DHT22;2117;47.972;7.830;2022-11-09T02:49:09;12.80;99.90
4207;DHT22;2117;47.972;7.830;2022-11-09T02:51:34;12.80;99.90
4207;DHT22;2117;47.972;7.830;2022-11-09T02:54:00;12.80;99.90
4207;DHT22;2117;47.972;7.830;2022-11-09T02:56:25;12.80;99.90
4207;DHT22;2117;47.972;7.830;2022-11-09T02:58:51;12.90;99.90
4207;DHT22;2117;47.972;7.830;2022-11-09T03:01:17;12.90;99.90
4207;DHT22;2117;47.972;7.830;2022-11-09T03:03:42;12.90;99.90
4207;DHT22;2117;47.972;7.830;2022-11-09T03:06:08;12.80;99.90
4207;DHT22;2117;47.972;7.830;2022-11-09T03:08:34;12.80;99.90
4207;DHT22;2117;47.972;7.830;2022-11-09T03:10:59;12.90;99.90
4207;DHT22;2117;47.972;7.830;2022-11-09T03:13:25;12.90;99.90
4207;DHT22;2117;47.972;7.830;2022-11-09T03:15:51;12.90;99.90
4207;DHT22;2117;47.972;7.830;2022-11-09T03:18:16;12.90;99.90
4207;DHT22;2117;47.972;7.830;2022-11-09T03:20:42;12.80;99.90
4207;DHT22;2117;47.972;7.830;2022-11-09T03:23:08;12.80;99.90
4207;DHT22;2117;47.972;7.830;2022-11-09T03:25:35;12.80;99.90
4207;DHT22;2117;47.972;7.830;2022-11-09T03:28:04;12.80;99.90
4207;DHT22;2117;47.972;7.830;2022-11-09T03:30:31;12.80;99.90
4207;DHT22;2117;47.972;7.830;2022-11-09T03:33:02;12.90;99.90
4207;DHT22;2117;47.972;7.830;2022-11-09T03:35:28;12.80;99.90
4207;DHT22;2117;47.972;7.830;2022-11-09T03:37:53;12.80;99.90
4207;DHT22;2117;47.972;7.830;2022-11-09T03:40:19;12.90;99.90
4207;DHT22;2117;47.972;7.830;2022-11-09T03:42:46;12.90;99.90
4207;DHT22;2117;47.972;7.830;2022-11-09T03:45:13;12.90;99.90
4207;DHT22;2117;47.972;7.830;2022-11-09T03:47:43;12.90;99.90
4207;DHT22;2117;47.972;7.830;2022-11-09T03:50:09;12.90;99.90
4207;DHT22;2117;47.972;7.830;2022-11-09T03:52:36;12.90;99.90
4207;DHT22;2117;47.972;7.830;2022-11-09T03:55:03;12.90;99.90
4207;DHT22;2117;47.972;7.830;2022-11-09T03:57:28;12.90;99.90
4207;DHT22;2117;47.972;7.830;2022-11-09T03:59:54;12.90;99.90
4207;DHT22;2117;47.972;7.830;2022-11-09T04:02:19;12.90;99.90
4207;DHT22;2117;47.972;7.830;2022-11-09T04:04:45;12.90;99.90
4207;DHT22;2117;47.972;7.830;2022-11-09T04:07:11;13.00;99.90
4207;DHT22;2117;47.972;7.830;2022-11-09T04:09:36;13.00;99.90
4207;DHT22;2117;47.972;7.830;2022-11-09T04:12:02;13.00;99.90
4207;DHT22;2117;47.972;7.830;2022-11-09T04:14:28;13.00;99.90
4207;DHT22;2117;47.972;7.830;2022-11-09T04:16:53;13.00;99.90
4207;DHT22;2117;47.972;7.830;2022-11-09T04:19:19;13.00;99.90
4207;DHT22;2117;47.972;7.830;2022-11-09T04:21:44;13.00;99.90
4207;DHT22;2117;47.972;7.830;2022-11-09T04:24:10;13.00;99.90
4207;DHT22;2117;47.972;7.830;2022-11-09T04:26:35;13.00;99.90
4207;DHT22;2117;47.972;7.830;2022-11-09T04:29:01;13.00;99.90
4207;DHT22;2117;47.972;7.830;2022-11-09T04:31:27;13.00;99.90
4207;DHT22;2117;47.972;7.830;2022-11-09T04:33:52;13.00;99.90
4207;DHT22;2117;47.972;7.830;2022-11-09T04:36:18;13.00;99.90
4207;DHT22;2117;47.972;7.830;2022-11-09T04:38:43;13.00;99.90
4207;DHT22;2117;47.972;7.830;2022-11-09T04:41:09;13.00;99.90
4207;DHT22;2117;47.972;7.830;2022-11-09T04:43:35;13.00;99.90
4207;DHT22;2117;47.972;7.830;2022-11-09T04:46:01;13.00;99.90
4207;DHT22;2117;47.972;7.830;2022-11-09T04:48:28;13.00;99.90
4207;DHT22;2117;47.972;7.830;2022-11-09T04:51:01;13.00;99.90
4207;DHT22;2117;47.972;7.830;2022-11-09T04:53:28;13.00;99.90
4207;DHT22;2117;47.972;7.830;2022-11-09T04:55:54;13.00;99.90
4207;DHT22;2117;47.972;7.830;2022-11-09T04:58:20;13.00;99.90
4207;DHT22;2117;47.972;7.830;2022-11-09T05:00:45;13.00;99.90
4207;DHT22;2117;47.972;7.830;2022-11-09T05:03:11;13.00;99.90
4207;DHT22;2117;47.972;7.830;2022-11-09T05:05:37;13.00;99.90
4207;DHT22;2117;47.972;7.830;2022-11-09T05:08:05;13.00;99.90
4207;DHT22;2117;47.972;7.830;2022-11-09T05:10:31;13.00;99.90
4207;DHT22;2117;47.972;7.830;2022-11-09T05:13:05;12.90;99.90
4207;DHT22;2117;47.972;7.830;2022-11-09T05:15:31;12.90;99.90
4207;DHT22;2117;47.972;7.830;2022-11-09T05:17:57;13.00;99.90
4207;DHT22;2117;47.972;7.830;2022-11-09T05:20:23;13.00;99.90
4207;DHT22;2117;47.972;7.830;2022-11-09T05:22:49;12.90;99.90
4207;DHT22;2117;47.972;7.830;2022-11-09T05:25:33;12.90;99.90
4207;DHT22;2117;47.972;7.830;2022-11-09T05:27:58;12.90;99.90
4207;DHT22;2117;47.972;7.830;2022-11-09T05:30:24;12.90;99.90
4207;DHT22;2117;47.972;7.830;2022-11-09T05:32:50;12.90;99.90
4207;DHT22;2117;47.972;7.830;2022-11-09T05:35:15;12.90;99.90
4207;DHT22;2117;47.972;7.830;2022-11-09T05:37:41;13.00;99.90
4207;DHT22;2117;47.972;7.830;2022-11-09T05:40:08;13.00;99.90
4207;DHT22;2117;47.972;7.830;2022-11-09T05:42:37;13.00;99.90
4207;DHT22;2117;47.972;7.830;2022-11-09T05:45:03;13.10;99.90
4207;DHT22;2117;47.972;7.830;2022-11-09T05:47:28;13.10;99.90
4207;DHT22;2117;47.972;7.830;2022-11-09T05:49:54;13.10;99.90
4207;DHT22;2117;47.972;7.830;2022-11-09T05:52:19;13.10;99.90
4207;DHT22;2117;47.972;7.830;2022-11-09T05:54:45;13.10;99.90
4207;DHT22;2117;47.972;7.830;2022-11-09T05:57:10;13.10;99.90
4207;DHT22;2117;47.972;7.830;2022-11-09T05:59:36;13.10;99.90
4207;DHT22;2117;47.972;7.830;2022-11-09T06:02:01;13.10;99.90
4207;DHT22;2117;47.972;7.830;2022-11-09T06:04:27;13.10;99.90
4207;DHT22;2117;47.972;7.830;2022-11-09T06:06:53;13.10;99.90
4207;DHT22;2117;47.972;7.830;2022-11-09T06:09:18;13.10;99.90
4207;DHT22;2117;47.972;7.830;2022-11-09T06:11:44;13.20;99.90
4207;DHT22;2117;47.972;7.830;2022-11-09T06:14:09;13.10;99.90
4207;DHT22;2117;47.972;7.830;2022-11-09T06:16:35;13.10;99.90
4207;DHT22;2117;47.972;7.830;2022-11-09T06:19:01;13.20;99.90
4207;DHT22;2117;47.972;7.830;2022-11-09T06:21:26;13.20;99.90
4207;DHT22;2117;47.972;7.830;2022-11-09T06:23:52;13.20;99.90
4207;DHT22;2117;47.972;7.830;2022-11-09T06:26:17;13.20;99.90
4207;DHT22;2117;47.972;7.830;2022-11-09T06:28:43;13.20;99.90
4207;DHT22;2117;47.972;7.830;2022-11-09T06:31:11;13.20;99.90
4207;DHT22;2117;47.972;7.830;2022-11-09T06:33:37;13.20;99.90
4207;DHT22;2117;47.972;7.830;2022-11-09T06:36:03;13.20;99.90
4207;DHT22;2117;47.972;7.830;2022-11-09T06:38:29;13.20;99.90
4207;DHT22;2117;47.972;7.830;2022-11-09T06:40:57;13.20;99.90
4207;DHT22;2117;47.972;7.830;2022-11-09T06:43:23;13.20;99.90
4207;DHT22;2117;47.972;7.830;2022-11-09T06:45:49;13.30;99.90
4207;DHT22;2117;47.972;7.830;2022-11-09T06:48:15;13.30;99.90
4207;DHT22;2117;47.972;7.830;2022-11-09T06:50:41;13.40;99.90
4207;DHT22;2117;47.972;7.830;2022-11-09T06:53:09;13.40;99.90
4207;DHT22;2117;47.972;7.830;2022-11-09T06:55:35;13.50;99.90
4207;DHT22;2117;47.972;7.830;2022-11-09T06:58:06;13.50;99.90
4207;DHT22;2117;47.972;7.830;2022-11-09T07:00:32;13.60;99.90
4207;DHT22;2117;47.972;7.830;2022-11-09T07:02:58;13.60;99.90
4207;DHT22;2117;47.972;7.830;2022-11-09T07:05:24;13.60;99.90
4207;DHT22;2117;47.972;7.830;2022-11-09T07:07:49;13.70;99.90
4207;DHT22;2117;47.972;7.830;2022-11-09T07:10:15;13.80;99.90
4207;DHT22;2117;47.972;7.830;2022-11-09T07:12:41;13.80;99.90
4207;DHT22;2117;47.972;7.830;2022-11-09T07:15:07;13.80;99.90
4207;DHT22;2117;47.972;7.830;2022-11-09T07:17:33;13.80;99.90
4207;DHT22;2117;47.972;7.830;2022-11-09T07:19:59;13.80;99.90
4207;DHT22;2117;47.972;7.830;2022-11-09T07:22:26;13.80;99.90
4207;DHT22;2117;47.972;7.830;2022-11-09T07:24:52;13.80;99.90
4207;DHT22;2117;47.972;7.830;2022-11-09T07:27:18;13.80;99.90
4207;DHT22;2117;47.972;7.830;2022-11-09T07:29:43;13.80;99.90
4207;DHT22;2117;47.972;7.830;2022-11-09T07:32:09;13.80;99.90
4207;DHT22;2117;47.972;7.830;2022-11-09T07:34:34;13.80;99.90
4207;DHT22;2117;47.972;7.830;2022-11-09T07:37:00;13.90;99.90
4207;DHT22;2117;47.972;7.830;2022-11-09T07:39:25;13.90;99.90
4207;DHT22;2117;47.972;7.830;2022-11-09T07:41:51;13.90;99.90
4207;DHT22;2117;47.972;7.830;2022-11-09T07:44:17;13.90;99.90
4207;DHT22;2117;47.972;7.830;2022-11-09T07:46:46;13.90;99.90
4207;DHT22;2117;47.972;7.830;2022-11-09T07:49:16;14.00;99.90
4207;DHT22;2117;47.972;7.830;2022-11-09T07:51:42;14.00;99.90
4207;DHT22;2117;47.972;7.830;2022-11-09T07:54:09;14.00;99.90
4207;DHT22;2117;47.972;7.830;2022-11-09T07:56:35;14.10;99.90
4207;DHT22;2117;47.972;7.830;2022-11-09T07:59:00;14.10;99.90
4207;DHT22;2117;47.972;7.830;2022-11-09T08:01:26;14.10;99.90
4207;DHT22;2117;47.972;7.830;2022-11-09T08:03:52;14.20;99.90
4207;DHT22;2117;47.972;7.830;2022-11-09T08:06:18;14.20;99.90
4207;DHT22;2117;47.972;7.830;2022-11-09T08:08:45;14.30;99.90
4207;DHT22;2117;47.972;7.830;2022-11-09T08:11:11;14.30;99.90
4207;DHT22;2117;47.972;7.830;2022-11-09T08:13:36;14.30;99.90
4207;DHT22;2117;47.972;7.830;2022-11-09T08:16:02;14.40;99.90
4207;DHT22;2117;47.972;7.830;2022-11-09T08:18:28;14.50;99.90
4207;DHT22;2117;47.972;7.830;2022-11-09T08:20:54;14.60;99.90
4207;DHT22;2117;47.972;7.830;2022-11-09T08:23:20;14.60;99.90
4207;DHT22;2117;47.972;7.830;2022-11-09T08:25:48;14.70;99.90
4207;DHT22;2117;47.972;7.830;2022-11-09T08:28:14;14.80;99.90
4207;DHT22;2117;47.972;7.830;2022-11-09T08:30:43;14.80;99.90
4207;DHT22;2117;47.972;7.830;2022-11-09T08:33:09;14.90;99.90
4207;DHT22;2117;47.972;7.830;2022-11-09T08:35:35;15.00;99.90
4207;DHT22;2117;47.972;7.830;2022-11-09T08:38:02;15.00;99.90
4207;DHT22;2117;47.972;7.830;2022-11-09T08:40:29;15.10;99.90
4207;DHT22;2117;47.972;7.830;2022-11-09T08:42:59;15.10;99.90
4207;DHT22;2117;47.972;7.830;2022-11-09T08:45:24;15.20;99.90
4207;DHT22;2117;47.972;7.830;2022-11-09T08:47:56;15.30;99.90
4207;DHT22;2117;47.972;7.830;2022-11-09T08:50:22;15.30;99.90
4207;DHT22;2117;47.972;7.830;2022-11-09T08:52:47;15.30;99.90
4207;DHT22;2117;47.972;7.830;2022-11-09T08:55:13;15.40;99.90
4207;DHT22;2117;47.972;7.830;2022-11-09T08:57:38;15.40;99.90
4207;DHT22;2117;47.972;7.830;2022-11-09T09:00:05;15.40;99.90
4207;DHT22;2117;47.972;7.830;2022-11-09T09:02:30;15.50;99.90
4207;DHT22;2117;47.972;7.830;2022-11-09T09:04:56;15.50;99.90
4207;DHT22;2117;47.972;7.830;2022-11-09T09:07:21;15.60;99.90
4207;DHT22;2117;47.972;7.830;2022-11-09T09:09:47;15.70;99.90
4207;DHT22;2117;47.972;7.830;2022-11-09T09:12:13;15.80;99.90
4207;DHT22;2117;47.972;7.830;2022-11-09T09:14:38;15.90;99.90
4207;DHT22;2117;47.972;7.830;2022-11-09T09:17:04;15.90;99.90
4207;DHT22;2117;47.972;7.830;2022-11-09T09:19:30;15.90;99.90
4207;DHT22;2117;47.972;7.830;2022-11-09T09:21:56;16.00;99.90
4207;DHT22;2117;47.972;7.830;2022-11-09T09:24:22;16.00;99.90
4207;DHT22;2117;47.972;7.830;2022-11-09T09:26:48;16.10;99.90
4207;DHT22;2117;47.972;7.830;2022-11-09T09:29:13;16.10;99.90
4207;DHT22;2117;47.972;7.830;2022-11-09T09:31:40;16.10;99.90
4207;DHT22;2117;47.972;7.830;2022-11-09T09:34:06;16.20;99.90
4207;DHT22;2117;47.972;7.830;2022-11-09T09:36:31;16.20;99.90
4207;DHT22;2117;47.972;7.830;2022-11-09T09:38:57;16.30;99.90
4207;DHT22;2117;47.972;7.830;2022-11-09T09:41:39;16.30;99.90
4207;DHT22;2117;47.972;7.830;2022-11-09T09:44:28;16.30;99.90
4207;DHT22;2117;47.972;7.830;2022-11-09T09:47:12;16.40;99.90
4207;DHT22;2117;47.972;7.830;2022-11-09T09:49:44;16.30;99.90
4207;DHT22;2117;47.972;7.830;2022-11-09T09:57:36;16.40;99.90
4207;DHT22;2117;47.972;7.830;2022-11-09T10:00:05;16.40;99.90
4207;DHT22;2117;47.972;7.830;2022-11-09T10:02:35;16.40;99.90
4207;DHT22;2117;47.972;7.830;2022-11-09T10:05:05;16.40;99.90
4207;DHT22;2117;47.972;7.830;2022-11-09T10:12:52;16.30;99.90
4207;DHT22;2117;47.972;7.830;2022-11-09T10:21:01;16.30;99.90
4207;DHT22;2117;47.972;7.830;2022-11-09T10:23:58;16.30;99.90
4207;DHT22;2117;47.972;7.830;2022-11-09T10:26:48;16.20;99.90
4207;DHT22;2117;47.972;7.830;2022-11-09T10:31:48;16.20;99.90
4207;DHT22;2117;47.972;7.830;2022-11-09T10:34:30;16.10;99.90
4207;DHT22;2117;47.972;7.830;2022-11-09T10:37:09;16.10;99.90
4207;DHT22;2117;47.972;7.830;2022-11-09T10:39:49;16.00;99.90
4207;DHT22;2117;47.972;7.830;2022-11-09T10:42:15;15.90;99.90
4207;DHT22;2117;47.972;7.830;2022-11-09T10:44:41;15.90;99.90
4207;DHT22;2117;47.972;7.830;2022-11-09T10:47:15;15.90;99.90
4207;DHT22;2117;47.972;7.830;2022-11-09T10:49:42;15.80;99.90
4207;DHT22;2117;47.972;7.830;2022-11-09T10:52:33;15.80;99.90
4207;DHT22;2117;47.972;7.830;2022-11-09T10:55:24;15.80;99.90
4207;DHT22;2117;47.972;7.830;2022-11-09T10:58:11;15.70;99.90
4207;DHT22;2117;47.972;7.830;2022-11-09T11:01:01;15.70;99.90
4207;DHT22;2117;47.972;7.830;2022-11-09T11:03:29;15.70;99.90
4207;DHT22;2117;47.972;7.830;2022-11-09T11:06:00;15.70;99.90
4207;DHT22;2117;47.972;7.830;2022-11-09T11:08:38;15.80;99.90
4207;DHT22;2117;47.972;7.830;2022-11-09T11:11:20;15.70;99.90
4207;DHT22;2117;47.972;7.830;2022-11-09T11:13:47;15.70;99.90
4207;DHT22;2117;47.972;7.830;2022-11-09T11:16:28;15.80;99.90
4207;DHT22;2117;47.972;7.830;2022-11-09T11:18:56;15.70;99.90
4207;DHT22;2117;47.972;7.830;2022-11-09T11:21:24;15.70;99.90
4207;DHT22;2117;47.972;7.830;2022-11-09T11:24:15;15.70;99.90
4207;DHT22;2117;47.972;7.830;2022-11-09T11:27:05;15.70;99.90
4207;DHT22;2117;47.972;7.830;2022-11-09T11:32:43;15.70;99.90
4207;DHT22;2117;47.972;7.830;2022-11-09T11:43:30;15.60;99.90
4207;DHT22;2117;47.972;7.830;2022-11-09T11:46:11;15.60;99.90
4207;DHT22;2117;47.972;7.830;2022-11-09T12:00:11;15.70;99.90
4207;DHT22;2117;47.972;7.830;2022-11-09T12:16:08;15.70;99.90
4207;DHT22;2117;47.972;7.830;2022-11-09T12:24:51;15.70;99.90
4207;DHT22;2117;47.972;7.830;2022-11-09T12:27:29;15.70;99.90
4207;DHT22;2117;47.972;7.830;2022-11-09T12:30:16;15.60;99.90
4207;DHT22;2117;47.972;7.830;2022-11-09T12:35:17;15.50;99.90
4207;DHT22;2117;47.972;7.830;2022-11-09T12:37:52;15.50;99.90
4207;DHT22;2117;47.972;7.830;2022-11-09T12:40:24;15.40;99.90
4207;DHT22;2117;47.972;7.830;2022-11-09T12:43:37;15.40;99.90
4207;DHT22;2117;47.972;7.830;2022-11-09T12:45:43;15.30;99.90
4207;DHT22;2117;47.972;7.830;2022-11-09T12:48:27;15.20;99.90
4207;DHT22;2117;47.972;7.830;2022-11-09T12:50:54;15.20;99.90
4207;DHT22;2117;47.972;7.830;2022-11-09T12:53:26;15.10;99.90
4207;DHT22;2117;47.972;7.830;2022-11-09T12:56:03;15.00;99.90
4207;DHT22;2117;47.972;7.830;2022-11-09T12:58:31;14.90;99.90
4207;DHT22;2117;47.972;7.830;2022-11-09T13:00:59;14.90;99.90
4207;DHT22;2117;47.972;7.830;2022-11-09T13:03:35;14.80;99.90
4207;DHT22;2117;47.972;7.830;2022-11-09T13:06:15;14.70;99.90
4207;DHT22;2117;47.972;7.830;2022-11-09T13:08:54;14.70;99.90
4207;DHT22;2117;47.972;7.830;2022-11-09T13:11:39;14.50;99.90
4207;DHT22;2117;47.972;7.830;2022-11-09T13:16:54;14.40;99.90
4207;DHT22;2117;47.972;7.830;2022-11-09T13:22:55;14.40;99.90
4207;DHT22;2117;47.972;7.830;2022-11-09T13:27:49;14.40;99.90
4207;DHT22;2117;47.972;7.830;2022-11-09T13:41:01;14.30;99.90
4207;DHT22;2117;47.972;7.830;2022-11-09T13:43:38;14.30;99.90
4207;DHT22;2117;47.972;7.830;2022-11-09T13:46:28;14.30;99.90
4207;DHT22;2117;47.972;7.830;2022-11-09T13:48:54;14.30;99.90
4207;DHT22;2117;47.972;7.830;2022-11-09T13:54:04;14.30;99.90
4207;DHT22;2117;47.972;7.830;2022-11-09T13:56:31;14.30;99.90
4207;DHT22;2117;47.972;7.830;2022-11-09T13:59:20;14.40;99.90
4207;DHT22;2117;47.972;7.830;2022-11-09T14:01:56;14.40;99.90
4207;DHT22;2117;47.972;7.830;2022-11-09T14:04:38;14.40;99.90
4207;DHT22;2117;47.972;7.830;2022-11-09T14:09:49;14.30;99.90
4207;DHT22;2117;47.972;7.830;2022-11-09T14:12:30;14.30;99.90
4207;DHT22;2117;47.972;7.830;2022-11-09T14:17:57;14.20;99.90
4207;DHT22;2117;47.972;7.830;2022-11-09T14:23:19;14.20;99.90
4207;DHT22;2117;47.972;7.830;2022-11-09T14:25:46;14.20;99.90
4207;DHT22;2117;47.972;7.830;2022-11-09T14:28:26;14.20;99.90
4207;DHT22;2117;47.972;7.830;2022-11-09T14:30:52;14.20;99.90
4207;DHT22;2117;47.972;7.830;2022-11-09T14:33:21;14.20;99.90
4207;DHT22;2117;47.972;7.830;2022-11-09T14:35:47;14.20;99.90
4207;DHT22;2117;47.972;7.830;2022-11-09T14:38:18;14.20;99.90
4207;DHT22;2117;47.972;7.830;2022-11-09T14:40:46;14.20;99.90
4207;DHT22;2117;47.972;7.830;2022-11-09T14:43:33;14.10;99.90
4207;DHT22;2117;47.972;7.830;2022-11-09T14:46:02;14.10;99.90
4207;DHT22;2117;47.972;7.830;2022-11-09T14:48:29;14.00;99.90
4207;DHT22;2117;47.972;7.830;2022-11-09T14:51:03;14.00;99.90
4207;DHT22;2117;47.972;7.830;2022-11-09T14:53:30;13.90;99.90
4207;DHT22;2117;47.972;7.830;2022-11-09T14:55:59;13.80;99.90
4207;DHT22;2117;47.972;7.830;2022-11-09T14:58:26;13.80;99.90
4207;DHT22;2117;47.972;7.830;2022-11-09T15:01:18;13.80;99.90
4207;DHT22;2117;47.972;7.830;2022-11-09T15:04:09;13.80;99.90
4207;DHT22;2117;47.972;7.830;2022-11-09T15:06:47;13.80;99.90
4207;DHT22;2117;47.972;7.830;2022-11-09T15:09:17;13.80;99.90
4207;DHT22;2117;47.972;7.830;2022-11-09T15:11:43;13.70;99.90
4207;DHT22;2117;47.972;7.830;2022-11-09T15:14:31;13.70;99.90
4207;DHT22;2117;47.972;7.830;2022-11-09T15:17:16;13.70;99.90
4207;DHT22;2117;47.972;7.830;2022-11-09T15:19:55;13.60;99.90
4207;DHT22;2117;47.972;7.830;2022-11-09T15:30:31;13.50;99.90
4207;DHT22;2117;47.972;7.830;2022-11-09T15:32:57;13.60;99.90
4207;DHT22;2117;47.972;7.830;2022-11-09T15:35:24;13.60;99.90
4207;DHT22;2117;47.972;7.830;2022-11-09T15:37:52;13.60;99.90
4207;DHT22;2117;47.972;7.830;2022-11-09T15:40:20;13.60;99.90
4207;DHT22;2117;47.972;7.830;2022-11-09T15:42:46;13.60;99.90
4207;DHT22;2117;47.972;7.830;2022-11-09T15:45:18;13.60;99.90
4207;DHT22;2117;47.972;7.830;2022-11-09T15:47:54;13.60;99.90
4207;DHT22;2117;47.972;7.830;2022-11-09T15:50:25;13.50;99.90
4207;DHT22;2117;47.972;7.830;2022-11-09T15:52:51;13.50;99.90
4207;DHT22;2117;47.972;7.830;2022-11-09T15:55:20;13.50;99.90
4207;DHT22;2117;47.972;7.830;2022-11-09T15:57:50;13.40;99.90
4207;DHT22;2117;47.972;7.830;2022-11-09T16:00:19;13.40;99.90
4207;DHT22;2117;47.972;7.830;2022-11-09T16:02:45;13.40;99.90
4207;DHT22;2117;47.972;7.830;2022-11-09T16:05:11;13.30;99.90
4207;DHT22;2117;47.972;7.830;2022-11-09T16:07:37;13.20;99.90
4207;DHT22;2117;47.972;7.830;2022-11-09T16:10:12;13.20;99.90
4207;DHT22;2117;47.972;7.830;2022-11-09T16:12:38;13.20;99.90
4207;DHT22;2117;47.972;7.830;2022-11-09T16:15:04;13.10;99.90
4207;DHT22;2117;47.972;7.830;2022-11-09T16:17:29;13.30;99.90
4207;DHT22;2117;47.972;7.830;2022-11-09T16:19:55;13.50;99.90
4207;DHT22;2117;47.972;7.830;2022-11-09T16:22:20;13.80;99.90
4207;DHT22;2117;47.972;7.830;2022-11-09T16:24:46;14.00;99.90
4207;DHT22;2117;47.972;7.830;2022-11-09T16:27:12;14.00;99.90
4207;DHT22;2117;47.972;7.830;2022-11-09T16:29:38;13.80;99.90
4207;DHT22;2117;47.972;7.830;2022-11-09T16:32:04;13.70;99.90
4207;DHT22;2117;47.972;7.830;2022-11-09T16:34:29;13.60;99.90
4207;DHT22;2117;47.972;7.830;2022-11-09T16:36:55;13.50;99.90
4207;DHT22;2117;47.972;7.830;2022-11-09T16:39:21;13.40;99.90
4207;DHT22;2117;47.972;7.830;2022-11-09T16:41:49;13.30;99.90
4207;DHT22;2117;47.972;7.830;2022-11-09T16:44:19;13.20;99.90
4207;DHT22;2117;47.972;7.830;2022-11-09T16:46:47;13.20;99.90
4207;DHT22;2117;47.972;7.830;2022-11-09T16:49:12;13.10;99.90
4207;DHT22;2117;47.972;7.830;2022-11-09T16:51:38;13.10;99.90
4207;DHT22;2117;47.972;7.830;2022-11-09T16:54:04;13.00;99.90
4207;DHT22;2117;47.972;7.830;2022-11-09T16:56:29;13.00;99.90
4207;DHT22;2117;47.972;7.830;2022-11-09T16:58:58;12.90;99.90
4207;DHT22;2117;47.972;7.830;2022-11-09T17:01:23;12.90;99.90
4207;DHT22;2117;47.972;7.830;2022-11-09T17:03:49;12.80;99.90
4207;DHT22;2117;47.972;7.830;2022-11-09T17:06:14;12.80;99.90
4207;DHT22;2117;47.972;7.830;2022-11-09T17:08:40;12.70;99.90
4207;DHT22;2117;47.972;7.830;2022-11-09T17:11:08;12.70;99.90
4207;DHT22;2117;47.972;7.830;2022-11-09T17:13:35;12.70;99.90
4207;DHT22;2117;47.972;7.830;2022-11-09T17:16:04;12.70;99.90
4207;DHT22;2117;47.972;7.830;2022-11-09T17:18:30;12.70;99.90
4207;DHT22;2117;47.972;7.830;2022-11-09T17:20:56;12.60;99.90
4207;DHT22;2117;47.972;7.830;2022-11-09T17:23:22;12.60;99.90
4207;DHT22;2117;47.972;7.830;2022-11-09T17:25:59;12.60;99.90
4207;DHT22;2117;47.972;7.830;2022-11-09T17:28:25;12.60;99.90
4207;DHT22;2117;47.972;7.830;2022-11-09T17:30:51;12.60;99.90
4207;DHT22;2117;47.972;7.830;2022-11-09T17:33:17;12.60;99.90
4207;DHT22;2117;47.972;7.830;2022-11-09T17:35:43;12.60;99.90
4207;DHT22;2117;47.972;7.830;2022-11-09T17:38:08;12.60;99.90
4207;DHT22;2117;47.972;7.830;2022-11-09T17:40:34;12.70;99.90
4207;DHT22;2117;47.972;7.830;2022-11-09T17:42:59;12.70;99.90
4207;DHT22;2117;47.972;7.830;2022-11-09T17:45:25;12.60;99.90
4207;DHT22;2117;47.972;7.830;2022-11-09T17:47:51;12.70;99.90
4207;DHT22;2117;47.972;7.830;2022-11-09T17:50:16;12.60;99.90
4207;DHT22;2117;47.972;7.830;2022-11-09T17:52:46;12.60;99.90
4207;DHT22;2117;47.972;7.830;2022-11-09T17:55:11;12.60;99.90
4207;DHT22;2117;47.972;7.830;2022-11-09T17:57:37;12.60;99.90
4207;DHT22;2117;47.972;7.830;2022-11-09T18:00:03;12.60;99.90
4207;DHT22;2117;47.972;7.830;2022-11-09T18:02:31;12.60;99.90
4207;DHT22;2117;47.972;7.830;2022-11-09T18:04:56;12.60;99.90
4207;DHT22;2117;47.972;7.830;2022-11-09T18:07:22;12.60;99.90
4207;DHT22;2117;47.972;7.830;2022-11-09T18:09:47;12.60;99.90
4207;DHT22;2117;47.972;7.830;2022-11-09T18:12:13;12.60;99.90
4207;DHT22;2117;47.972;7.830;2022-11-09T18:14:40;12.60;99.90
4207;DHT22;2117;47.972;7.830;2022-11-09T18:17:06;12.50;99.90
4207;DHT22;2117;47.972;7.830;2022-11-09T18:19:32;12.50;99.90
4207;DHT22;2117;47.972;7.830;2022-11-09T18:21:57;12.50;99.90
4207;DHT22;2117;47.972;7.830;2022-11-09T18:24:23;12.50;99.90
4207;DHT22;2117;47.972;7.830;2022-11-09T18:26:48;12.50;99.90
4207;DHT22;2117;47.972;7.830;2022-11-09T18:29:14;12.50;99.90
4207;DHT22;2117;47.972;7.830;2022-11-09T18:31:39;12.50;99.90
4207;DHT22;2117;47.972;7.830;2022-11-09T18:34:05;12.50;99.90
4207;DHT22;2117;47.972;7.830;2022-11-09T18:36:30;12.50;99.90
4207;DHT22;2117;47.972;7.830;2022-11-09T18:38:56;12.50;99.90
4207;DHT22;2117;47.972;7.830;2022-11-09T18:41:23;12.40;99.90
4207;DHT22;2117;47.972;7.830;2022-11-09T18:43:50;12.50;99.90
4207;DHT22;2117;47.972;7.830;2022-11-09T18:46:20;12.50;99.90
4207;DHT22;2117;47.972;7.830;2022-11-09T18:48:50;12.50;99.90
4207;DHT22;2117;47.972;7.830;2022-11-09T18:51:17;12.50;99.90
4207;DHT22;2117;47.972;7.830;2022-11-09T18:53:44;12.40;99.90
4207;DHT22;2117;47.972;7.830;2022-11-09T18:56:13;12.40;99.90
4207;DHT22;2117;47.972;7.830;2022-11-09T18:58:44;12.40;99.90
4207;DHT22;2117;47.972;7.830;2022-11-09T19:01:10;12.40;99.90
4207;DHT22;2117;47.972;7.830;2022-11-09T19:03:36;12.40;99.90
4207;DHT22;2117;47.972;7.830;2022-11-09T19:06:06;12.40;99.90
4207;DHT22;2117;47.972;7.830;2022-11-09T19:08:32;12.40;99.90
4207;DHT22;2117;47.972;7.830;2022-11-09T19:11:17;12.40;99.90
4207;DHT22;2117;47.972;7.830;2022-11-09T19:13:43;12.40;99.90
4207;DHT22;2117;47.972;7.830;2022-11-09T19:16:10;12.40;99.90
4207;DHT22;2117;47.972;7.830;2022-11-09T19:18:36;12.40;99.90
4207;DHT22;2117;47.972;7.830;2022-11-09T19:21:02;12.40;99.90
4207;DHT22;2117;47.972;7.830;2022-11-09T19:23:29;12.40;99.90
4207;DHT22;2117;47.972;7.830;2022-11-09T19:25:54;12.40;99.90
4207;DHT22;2117;47.972;7.830;2022-11-09T19:28:20;12.40;99.90
4207;DHT22;2117;47.972;7.830;2022-11-09T19:30:45;12.40;99.90
4207;DHT22;2117;47.972;7.830;2022-11-09T19:33:11;12.40;99.90
4207;DHT22;2117;47.972;7.830;2022-11-09T19:35:37;12.30;99.90
4207;DHT22;2117;47.972;7.830;2022-11-09T19:38:03;12.30;99.90
4207;DHT22;2117;47.972;7.830;2022-11-09T19:40:28;12.20;99.90
4207;DHT22;2117;47.972;7.830;2022-11-09T19:42:54;12.20;99.90
4207;DHT22;2117;47.972;7.830;2022-11-09T19:45:19;12.20;99.90
4207;DHT22;2117;47.972;7.830;2022-11-09T19:47:47;12.20;99.90
4207;DHT22;2117;47.972;7.830;2022-11-09T19:50:13;12.20;99.90
4207;DHT22;2117;47.972;7.830;2022-11-09T19:52:38;12.20;99.90
4207;DHT22;2117;47.972;7.830;2022-11-09T19:55:05;12.10;99.90
4207;DHT22;2117;47.972;7.830;2022-11-09T19:57:30;12.10;99.90
4207;DHT22;2117;47.972;7.830;2022-11-09T19:59:56;12.10;99.90
4207;DHT22;2117;47.972;7.830;2022-11-09T20:02:22;12.20;99.90
4207;DHT22;2117;47.972;7.830;2022-11-09T20:04:48;12.50;99.90
4207;DHT22;2117;47.972;7.830;2022-11-09T20:07:15;12.80;99.90
4207;DHT22;2117;47.972;7.830;2022-11-09T20:09:40;12.90;99.90
4207;DHT22;2117;47.972;7.830;2022-11-09T20:12:07;12.90;99.90
4207;DHT22;2117;47.972;7.830;2022-11-09T20:14:52;12.80;99.90
4207;DHT22;2117;47.972;7.830;2022-11-09T20:17:17;12.70;99.90
4207;DHT22;2117;47.972;7.830;2022-11-09T20:19:43;12.60;99.90
4207;DHT22;2117;47.972;7.830;2022-11-09T20:22:08;12.50;99.90
4207;DHT22;2117;47.972;7.830;2022-11-09T20:24:34;12.50;99.90
4207;DHT22;2117;47.972;7.830;2022-11-09T20:26:59;12.40;99.90